sensor_id;sensor_type;location;lat;lon;timestamp;temperature;humidity
15359;DHT22;7779;49.596;11.070;2022-07-10T00:00:42;17.60;65.60
15359;DHT22;7779;49.596;11.070;2022-07-10T00:03:07;17.60;65.70
15359;DHT22;7779;49.596;11.070;2022-07-10T00:05:33;17.50;65.70
15359;DHT22;7779;49.596;11.070;2022-07-10T00:08:00;17.50;65.80
15359;DHT22;7779;49.596;11.070;2022-07-10T00:10:26;17.40;65.90
15359;DHT22;7779;49.596;11.070;2022-07-10T00:12:54;17.40;66.00
15359;DHT22;7779;49.596;11.070;2022-07-10T00:15:21;17.40;66.10
15359;DHT22;7779;49.596;11.070;2022-07-10T00:17:47;17.30;66.30
15359;DHT22;7779;49.596;11.070;2022-07-10T00:20:13;17.30;66.40
15359;DHT22;7779;49.596;11.070;2022-07-10T00:22:40;17.30;66.60
15359;DHT22;7779;49.596;11.070;2022-07-10T00:25:09;17.30;66.70
15359;DHT22;7779;49.596;11.070;2022-07-10T00:27:36;17.20;66.30
15359;DHT22;7779;49.596;11.070;2022-07-10T00:30:03;17.20;66.50
15359;DHT22;7779;49.596;11.070;2022-07-10T00:32:29;17.20;66.50
15359;DHT22;7779;49.596;11.070;2022-07-10T00:34:55;17.20;66.50
15359;DHT22;7779;49.596;11.070;2022-07-10T00:37:21;17.20;68.20
15359;DHT22;7779;49.596;11.070;2022-07-10T00:39:47;17.20;66.60
15359;DHT22;7779;49.596;11.070;2022-07-10T00:42:14;17.20;66.50
15359;DHT22;7779;49.596;11.070;2022-07-10T00:44:42;17.10;66.50
15359;DHT22;7779;49.596;11.070;2022-07-10T00:47:10;17.10;66.10
15359;DHT22;7779;49.596;11.070;2022-07-10T00:49:38;17.10;66.50
15359;DHT22;7779;49.596;11.070;2022-07-10T00:52:11;17.10;66.60
15359;DHT22;7779;49.596;11.070;2022-07-10T00:54:40;17.00;67.00
15359;DHT22;7779;49.596;11.070;2022-07-10T00:57:10;17.00;66.70
15359;DHT22;7779;49.596;11.070;2022-07-10T00:59:38;17.00;66.70
15359;DHT22;7779;49.596;11.070;2022-07-10T01:02:05;16.90;66.60
15359;DHT22;7779;49.596;11.070;2022-07-10T01:04:31;16.90;66.70
15359;DHT22;7779;49.596;11.070;2022-07-10T01:06:58;16.90;66.70
15359;DHT22;7779;49.596;11.070;2022-07-10T01:09:25;16.90;66.80
15359;DHT22;7779;49.596;11.070;2022-07-10T01:11:51;16.90;66.90
15359;DHT22;7779;49.596;11.070;2022-07-10T01:14:17;16.80;66.80
15359;DHT22;7779;49.596;11.070;2022-07-10T01:16:43;16.80;66.90
15359;DHT22;7779;49.596;11.070;2022-07-10T01:19:09;16.70;66.90
15359;DHT22;7779;49.596;11.070;2022-07-10T01:21:36;16.80;67.10
15359;DHT22;7779;49.596;11.070;2022-07-10T01:24:09;16.80;67.20
15359;DHT22;7779;49.596;11.070;2022-07-10T01:26:36;16.70;68.00
15359;DHT22;7779;49.596;11.070;2022-07-10T01:29:08;16.70;67.20
15359;DHT22;7779;49.596;11.070;2022-07-10T01:31:35;16.70;67.30
15359;DHT22;7779;49.596;11.070;2022-07-10T01:34:02;16.70;67.40
15359;DHT22;7779;49.596;11.070;2022-07-10T01:36:31;16.70;67.50
15359;DHT22;7779;49.596;11.070;2022-07-10T01:38:58;16.70;67.60
15359;DHT22;7779;49.596;11.070;2022-07-10T01:41:25;16.70;67.90
15359;DHT22;7779;49.596;11.070;2022-07-10T01:43:52;16.60;67.80
15359;DHT22;7779;49.596;11.070;2022-07-10T01:46:18;16.70;68.00
15359;DHT22;7779;49.596;11.070;2022-07-10T01:48:44;16.70;68.10
15359;DHT22;7779;49.596;11.070;2022-07-10T01:51:11;16.70;68.10
15359;DHT22;7779;49.596;11.070;2022-07-10T01:53:38;16.70;68.10
15359;DHT22;7779;49.596;11.070;2022-07-10T01:56:06;16.80;69.00
15359;DHT22;7779;49.596;11.070;2022-07-10T01:58:34;16.80;68.20
15359;DHT22;7779;49.596;11.070;2022-07-10T02:01:01;16.80;68.00
15359;DHT22;7779;49.596;11.070;2022-07-10T02:03:28;16.80;67.80
15359;DHT22;7779;49.596;11.070;2022-07-10T02:06:13;16.80;67.80
15359;DHT22;7779;49.596;11.070;2022-07-10T02:08:39;16.80;67.60
15359;DHT22;7779;49.596;11.070;2022-07-10T02:11:05;16.70;67.50
15359;DHT22;7779;49.596;11.070;2022-07-10T02:13:31;16.70;67.50
15359;DHT22;7779;49.596;11.070;2022-07-10T02:15:57;16.70;67.40
15359;DHT22;7779;49.596;11.070;2022-07-10T02:18:23;16.70;67.20
15359;DHT22;7779;49.596;11.070;2022-07-10T02:20:51;16.70;67.20
15359;DHT22;7779;49.596;11.070;2022-07-10T02:23:17;16.80;67.10
15359;DHT22;7779;49.596;11.070;2022-07-10T02:25:44;16.70;66.90
15359;DHT22;7779;49.596;11.070;2022-07-10T02:28:10;16.70;66.70
15359;DHT22;7779;49.596;11.070;2022-07-10T02:30:36;16.70;66.60
15359;DHT22;7779;49.596;11.070;2022-07-10T02:33:02;16.70;66.50
15359;DHT22;7779;49.596;11.070;2022-07-10T02:37:54;16.60;65.40
15359;DHT22;7779;49.596;11.070;2022-07-10T02:40:21;16.60;65.90
15359;DHT22;7779;49.596;11.070;2022-07-10T02:42:46;16.60;65.80
15359;DHT22;7779;49.596;11.070;2022-07-10T02:45:12;16.60;65.70
15359;DHT22;7779;49.596;11.070;2022-07-10T02:47:38;16.50;65.60
15359;DHT22;7779;49.596;11.070;2022-07-10T02:50:04;16.50;65.50
15359;DHT22;7779;49.596;11.070;2022-07-10T02:52:30;16.50;65.50
15359;DHT22;7779;49.596;11.070;2022-07-10T02:54:57;16.50;65.60
15359;DHT22;7779;49.596;11.070;2022-07-10T02:57:24;16.50;65.60
15359;DHT22;7779;49.596;11.070;2022-07-10T02:59:50;16.50;65.50
15359;DHT22;7779;49.596;11.070;2022-07-10T03:02:16;16.50;65.40
15359;DHT22;7779;49.596;11.070;2022-07-10T03:04:42;16.50;65.20
15359;DHT22;7779;49.596;11.070;2022-07-10T03:07:08;16.50;65.10
15359;DHT22;7779;49.596;11.070;2022-07-10T03:09:34;16.50;64.90
15359;DHT22;7779;49.596;11.070;2022-07-10T03:12:00;16.50;64.80
15359;DHT22;7779;49.596;11.070;2022-07-10T03:14:26;16.40;64.60
15359;DHT22;7779;49.596;11.070;2022-07-10T03:16:51;16.40;64.50
15359;DHT22;7779;49.596;11.070;2022-07-10T03:19:17;16.40;64.40
15359;DHT22;7779;49.596;11.070;2022-07-10T03:21:43;16.40;64.30
15359;DHT22;7779;49.596;11.070;2022-07-10T03:24:10;16.30;64.20
15359;DHT22;7779;49.596;11.070;2022-07-10T03:26:35;16.30;64.20
15359;DHT22;7779;49.596;11.070;2022-07-10T03:29:01;16.30;64.20
15359;DHT22;7779;49.596;11.070;2022-07-10T03:31:27;16.20;64.10
15359;DHT22;7779;49.596;11.070;2022-07-10T03:33:53;16.20;64.10
15359;DHT22;7779;49.596;11.070;2022-07-10T03:36:19;16.20;64.20
15359;DHT22;7779;49.596;11.070;2022-07-10T03:38:45;16.20;64.20
15359;DHT22;7779;49.596;11.070;2022-07-10T03:41:13;16.10;64.10
15359;DHT22;7779;49.596;11.070;2022-07-10T03:43:39;16.10;64.30
15359;DHT22;7779;49.596;11.070;2022-07-10T03:46:05;16.00;64.10
15359;DHT22;7779;49.596;11.070;2022-07-10T03:48:31;16.00;64.20
15359;DHT22;7779;49.596;11.070;2022-07-10T03:50:58;16.00;64.30
15359;DHT22;7779;49.596;11.070;2022-07-10T03:53:24;15.90;64.20
15359;DHT22;7779;49.596;11.070;2022-07-10T03:55:50;16.00;64.50
15359;DHT22;7779;49.596;11.070;2022-07-10T03:58:16;16.00;64.80
15359;DHT22;7779;49.596;11.070;2022-07-10T04:00:42;15.90;64.80
15359;DHT22;7779;49.596;11.070;2022-07-10T04:03:09;15.90;64.80
15359;DHT22;7779;49.596;11.070;2022-07-10T04:05:35;15.90;64.70
15359;DHT22;7779;49.596;11.070;2022-07-10T04:08:02;15.90;64.70
15359;DHT22;7779;49.596;11.070;2022-07-10T04:10:30;15.90;64.70
15359;DHT22;7779;49.596;11.070;2022-07-10T04:12:59;15.90;64.70
15359;DHT22;7779;49.596;11.070;2022-07-10T04:15:25;15.90;64.70
15359;DHT22;7779;49.596;11.070;2022-07-10T04:17:52;15.90;64.80
15359;DHT22;7779;49.596;11.070;2022-07-10T04:20:18;15.90;64.90
15359;DHT22;7779;49.596;11.070;2022-07-10T04:22:45;15.90;65.00
15359;DHT22;7779;49.596;11.070;2022-07-10T04:25:11;15.90;65.00
15359;DHT22;7779;49.596;11.070;2022-07-10T04:27:38;15.90;65.00
15359;DHT22;7779;49.596;11.070;2022-07-10T04:30:04;15.80;64.90
15359;DHT22;7779;49.596;11.070;2022-07-10T04:32:31;15.90;65.10
15359;DHT22;7779;49.596;11.070;2022-07-10T04:34:57;15.90;65.10
15359;DHT22;7779;49.596;11.070;2022-07-10T04:37:24;15.90;65.30
15359;DHT22;7779;49.596;11.070;2022-07-10T04:39:50;16.00;66.10
15359;DHT22;7779;49.596;11.070;2022-07-10T04:42:16;16.10;66.80
15359;DHT22;7779;49.596;11.070;2022-07-10T04:44:42;16.20;67.40
15359;DHT22;7779;49.596;11.070;2022-07-10T04:47:08;16.40;67.70
15359;DHT22;7779;49.596;11.070;2022-07-10T04:49:34;16.60;67.90
15359;DHT22;7779;49.596;11.070;2022-07-10T04:52:00;16.90;67.70
15359;DHT22;7779;49.596;11.070;2022-07-10T04:54:26;17.10;67.20
15359;DHT22;7779;49.596;11.070;2022-07-10T04:56:52;17.30;66.50
15359;DHT22;7779;49.596;11.070;2022-07-10T04:59:18;17.50;65.40
15359;DHT22;7779;49.596;11.070;2022-07-10T05:01:44;17.70;64.90
15359;DHT22;7779;49.596;11.070;2022-07-10T05:04:10;17.80;64.10
15359;DHT22;7779;49.596;11.070;2022-07-10T05:06:36;17.90;63.30
15359;DHT22;7779;49.596;11.070;2022-07-10T05:09:03;17.90;62.50
15359;DHT22;7779;49.596;11.070;2022-07-10T05:11:29;17.90;61.80
15359;DHT22;7779;49.596;11.070;2022-07-10T05:13:55;17.90;61.40
15359;DHT22;7779;49.596;11.070;2022-07-10T05:16:21;17.80;61.20
15359;DHT22;7779;49.596;11.070;2022-07-10T05:18:47;17.80;61.20
15359;DHT22;7779;49.596;11.070;2022-07-10T05:21:13;17.80;61.10
15359;DHT22;7779;49.596;11.070;2022-07-10T05:23:39;17.70;61.10
15359;DHT22;7779;49.596;11.070;2022-07-10T05:26:06;17.70;61.20
15359;DHT22;7779;49.596;11.070;2022-07-10T05:28:32;17.60;61.10
15359;DHT22;7779;49.596;11.070;2022-07-10T05:30:58;17.60;61.10
15359;DHT22;7779;49.596;11.070;2022-07-10T05:33:24;17.60;61.00
15359;DHT22;7779;49.596;11.070;2022-07-10T05:35:52;17.60;61.10
15359;DHT22;7779;49.596;11.070;2022-07-10T05:38:18;17.60;61.30
15359;DHT22;7779;49.596;11.070;2022-07-10T05:40:43;17.70;61.60
15359;DHT22;7779;49.596;11.070;2022-07-10T05:43:09;17.80;61.80
15359;DHT22;7779;49.596;11.070;2022-07-10T05:45:37;17.80;61.40
15359;DHT22;7779;49.596;11.070;2022-07-10T05:48:03;17.90;60.90
15359;DHT22;7779;49.596;11.070;2022-07-10T05:50:29;18.00;60.70
15359;DHT22;7779;49.596;11.070;2022-07-10T05:52:55;18.00;60.30
15359;DHT22;7779;49.596;11.070;2022-07-10T05:55:22;18.10;60.00
15359;DHT22;7779;49.596;11.070;2022-07-10T05:57:47;18.10;59.90
15359;DHT22;7779;49.596;11.070;2022-07-10T06:00:14;18.20;59.90
15359;DHT22;7779;49.596;11.070;2022-07-10T06:02:40;18.30;60.10
15359;DHT22;7779;49.596;11.070;2022-07-10T06:05:06;18.40;60.40
15359;DHT22;7779;49.596;11.070;2022-07-10T06:07:33;18.60;60.60
15359;DHT22;7779;49.596;11.070;2022-07-10T06:09:59;18.70;60.60
15359;DHT22;7779;49.596;11.070;2022-07-10T06:12:26;19.00;60.30
15359;DHT22;7779;49.596;11.070;2022-07-10T06:14:51;19.10;59.80
15359;DHT22;7779;49.596;11.070;2022-07-10T06:17:17;19.30;59.60
15359;DHT22;7779;49.596;11.070;2022-07-10T06:19:43;19.40;59.20
15359;DHT22;7779;49.596;11.070;2022-07-10T06:22:09;19.60;58.80
15359;DHT22;7779;49.596;11.070;2022-07-10T06:24:53;19.60;58.10
15359;DHT22;7779;49.596;11.070;2022-07-10T06:27:19;19.70;57.80
15359;DHT22;7779;49.596;11.070;2022-07-10T06:29:45;19.70;57.60
15359;DHT22;7779;49.596;11.070;2022-07-10T06:32:11;19.80;57.30
15359;DHT22;7779;49.596;11.070;2022-07-10T06:34:37;19.80;56.90
15359;DHT22;7779;49.596;11.070;2022-07-10T06:37:03;19.70;56.50
15359;DHT22;7779;49.596;11.070;2022-07-10T06:39:32;19.70;56.20
15359;DHT22;7779;49.596;11.070;2022-07-10T06:42:01;19.60;56.00
15359;DHT22;7779;49.596;11.070;2022-07-10T06:44:27;19.50;55.90
15359;DHT22;7779;49.596;11.070;2022-07-10T06:46:53;19.40;56.00
15359;DHT22;7779;49.596;11.070;2022-07-10T06:49:40;19.40;56.10
15359;DHT22;7779;49.596;11.070;2022-07-10T06:52:06;19.30;55.70
15359;DHT22;7779;49.596;11.070;2022-07-10T06:54:33;19.20;55.60
15359;DHT22;7779;49.596;11.070;2022-07-10T06:56:59;19.10;55.50
15359;DHT22;7779;49.596;11.070;2022-07-10T06:59:24;19.10;55.50
15359;DHT22;7779;49.596;11.070;2022-07-10T07:01:51;19.00;55.60
15359;DHT22;7779;49.596;11.070;2022-07-10T07:04:17;19.10;56.10
15359;DHT22;7779;49.596;11.070;2022-07-10T07:06:42;19.20;55.10
15359;DHT22;7779;49.596;11.070;2022-07-10T07:09:08;19.30;56.70
15359;DHT22;7779;49.596;11.070;2022-07-10T07:11:34;19.40;56.20
15359;DHT22;7779;49.596;11.070;2022-07-10T07:14:00;19.50;55.80
15359;DHT22;7779;49.596;11.070;2022-07-10T07:16:26;19.50;55.50
15359;DHT22;7779;49.596;11.070;2022-07-10T07:19:12;19.60;55.40
15359;DHT22;7779;49.596;11.070;2022-07-10T07:21:46;19.70;55.20
15359;DHT22;7779;49.596;11.070;2022-07-10T07:24:30;19.70;54.40
15359;DHT22;7779;49.596;11.070;2022-07-10T07:26:56;19.70;54.10
15359;DHT22;7779;49.596;11.070;2022-07-10T07:29:22;19.70;53.90
15359;DHT22;7779;49.596;11.070;2022-07-10T07:31:47;19.80;53.80
15359;DHT22;7779;49.596;11.070;2022-07-10T07:34:13;19.90;53.80
15359;DHT22;7779;49.596;11.070;2022-07-10T07:36:39;19.80;51.10
15359;DHT22;7779;49.596;11.070;2022-07-10T07:39:05;19.90;53.40
15359;DHT22;7779;49.596;11.070;2022-07-10T07:41:31;19.90;53.20
15359;DHT22;7779;49.596;11.070;2022-07-10T07:43:57;19.90;52.80
15359;DHT22;7779;49.596;11.070;2022-07-10T07:46:22;19.90;52.40
15359;DHT22;7779;49.596;11.070;2022-07-10T07:48:49;19.80;51.90
15359;DHT22;7779;49.596;11.070;2022-07-10T07:51:15;19.80;51.70
15359;DHT22;7779;49.596;11.070;2022-07-10T07:53:41;19.80;51.90
15359;DHT22;7779;49.596;11.070;2022-07-10T07:56:07;19.70;51.90
15359;DHT22;7779;49.596;11.070;2022-07-10T07:58:32;19.70;52.00
15359;DHT22;7779;49.596;11.070;2022-07-10T08:00:58;19.80;51.90
15359;DHT22;7779;49.596;11.070;2022-07-10T08:03:24;19.80;51.40
15359;DHT22;7779;49.596;11.070;2022-07-10T08:05:50;19.90;50.00
15359;DHT22;7779;49.596;11.070;2022-07-10T08:08:16;19.90;51.50
15359;DHT22;7779;49.596;11.070;2022-07-10T08:10:42;20.00;51.40
15359;DHT22;7779;49.596;11.070;2022-07-10T08:13:08;20.00;51.10
15359;DHT22;7779;49.596;11.070;2022-07-10T08:15:34;20.10;50.60
15359;DHT22;7779;49.596;11.070;2022-07-10T08:18:02;20.10;51.10
15359;DHT22;7779;49.596;11.070;2022-07-10T08:20:33;20.10;50.60
15359;DHT22;7779;49.596;11.070;2022-07-10T08:22:59;20.10;50.40
15359;DHT22;7779;49.596;11.070;2022-07-10T08:25:25;20.10;50.40
15359;DHT22;7779;49.596;11.070;2022-07-10T08:27:51;20.10;50.10
15359;DHT22;7779;49.596;11.070;2022-07-10T08:30:17;20.10;50.10
15359;DHT22;7779;49.596;11.070;2022-07-10T08:32:43;20.10;50.00
15359;DHT22;7779;49.596;11.070;2022-07-10T08:35:09;20.10;50.10
15359;DHT22;7779;49.596;11.070;2022-07-10T08:37:40;20.10;50.10
15359;DHT22;7779;49.596;11.070;2022-07-10T08:40:12;20.10;50.00
15359;DHT22;7779;49.596;11.070;2022-07-10T08:42:40;20.10;50.10
15359;DHT22;7779;49.596;11.070;2022-07-10T08:45:09;20.10;50.10
15359;DHT22;7779;49.596;11.070;2022-07-10T08:47:38;20.10;50.00
15359;DHT22;7779;49.596;11.070;2022-07-10T08:50:23;20.20;50.20
15359;DHT22;7779;49.596;11.070;2022-07-10T08:55:30;20.30;49.20
15359;DHT22;7779;49.596;11.070;2022-07-10T08:57:58;20.30;49.80
15359;DHT22;7779;49.596;11.070;2022-07-10T09:00:25;20.40;49.60
15359;DHT22;7779;49.596;11.070;2022-07-10T09:02:53;20.40;50.30
15359;DHT22;7779;49.596;11.070;2022-07-10T09:05:20;20.50;49.30
15359;DHT22;7779;49.596;11.070;2022-07-10T09:07:46;20.60;49.10
15359;DHT22;7779;49.596;11.070;2022-07-10T09:10:12;20.50;48.80
15359;DHT22;7779;49.596;11.070;2022-07-10T09:15:28;20.50;47.70
15359;DHT22;7779;49.596;11.070;2022-07-10T09:17:59;20.50;48.10
15359;DHT22;7779;49.596;11.070;2022-07-10T09:20:27;20.50;48.10
15359;DHT22;7779;49.596;11.070;2022-07-10T09:23:00;20.40;48.10
15359;DHT22;7779;49.596;11.070;2022-07-10T09:25:47;20.40;47.80
15359;DHT22;7779;49.596;11.070;2022-07-10T09:28:20;20.30;48.20
15359;DHT22;7779;49.596;11.070;2022-07-10T09:30:48;20.30;47.90
15359;DHT22;7779;49.596;11.070;2022-07-10T09:36:07;20.30;48.20
15359;DHT22;7779;49.596;11.070;2022-07-10T09:41:16;20.40;47.70
15359;DHT22;7779;49.596;11.070;2022-07-10T09:46:26;20.40;48.00
15359;DHT22;7779;49.596;11.070;2022-07-10T09:49:11;20.40;48.70
15359;DHT22;7779;49.596;11.070;2022-07-10T09:51:42;20.50;47.60
15359;DHT22;7779;49.596;11.070;2022-07-10T09:54:11;20.60;48.50
15359;DHT22;7779;49.596;11.070;2022-07-10T09:59:17;20.70;48.50
15359;DHT22;7779;49.596;11.070;2022-07-10T10:01:45;20.80;48.30
15359;DHT22;7779;49.596;11.070;2022-07-10T10:04:18;20.80;47.90
15359;DHT22;7779;49.596;11.070;2022-07-10T10:06:53;20.90;47.90
15359;DHT22;7779;49.596;11.070;2022-07-10T10:09:25;21.00;47.30
15359;DHT22;7779;49.596;11.070;2022-07-10T10:12:00;21.00;48.40
15359;DHT22;7779;49.596;11.070;2022-07-10T10:14:48;21.10;48.00
15359;DHT22;7779;49.596;11.070;2022-07-10T10:17:16;21.10;47.70
15359;DHT22;7779;49.596;11.070;2022-07-10T10:19:44;21.20;47.70
15359;DHT22;7779;49.596;11.070;2022-07-10T10:22:30;21.30;47.80
15359;DHT22;7779;49.596;11.070;2022-07-10T10:24:59;21.30;47.80
15359;DHT22;7779;49.596;11.070;2022-07-10T10:27:27;21.40;47.70
15359;DHT22;7779;49.596;11.070;2022-07-10T10:29:54;21.50;47.70
15359;DHT22;7779;49.596;11.070;2022-07-10T10:32:20;21.60;47.70
15359;DHT22;7779;49.596;11.070;2022-07-10T10:34:47;21.60;47.40
15359;DHT22;7779;49.596;11.070;2022-07-10T10:39:54;21.70;46.60
15359;DHT22;7779;49.596;11.070;2022-07-10T10:42:40;21.70;47.00
15359;DHT22;7779;49.596;11.070;2022-07-10T10:45:22;21.70;46.20
15359;DHT22;7779;49.596;11.070;2022-07-10T10:48:09;21.70;45.80
15359;DHT22;7779;49.596;11.070;2022-07-10T10:50:40;21.70;45.80
15359;DHT22;7779;49.596;11.070;2022-07-10T10:53:14;21.70;45.80
15359;DHT22;7779;49.596;11.070;2022-07-10T11:01:33;21.60;47.10
15359;DHT22;7779;49.596;11.070;2022-07-10T11:06:47;21.60;46.60
15359;DHT22;7779;49.596;11.070;2022-07-10T11:09:30;21.60;46.00
15359;DHT22;7779;49.596;11.070;2022-07-10T11:12:02;21.60;45.90
15359;DHT22;7779;49.596;11.070;2022-07-10T11:14:37;21.60;46.40
15359;DHT22;7779;49.596;11.070;2022-07-10T11:17:06;21.60;47.20
15359;DHT22;7779;49.596;11.070;2022-07-10T11:19:33;21.60;46.50
15359;DHT22;7779;49.596;11.070;2022-07-10T11:28:04;21.70;45.70
15359;DHT22;7779;49.596;11.070;2022-07-10T11:30:54;21.80;45.50
15359;DHT22;7779;49.596;11.070;2022-07-10T11:33:21;21.80;44.80
15359;DHT22;7779;49.596;11.070;2022-07-10T11:35:52;21.80;45.90
15359;DHT22;7779;49.596;11.070;2022-07-10T11:38:21;21.80;45.80
15359;DHT22;7779;49.596;11.070;2022-07-10T11:40:49;21.90;45.80
15359;DHT22;7779;49.596;11.070;2022-07-10T11:43:15;21.90;45.70
15359;DHT22;7779;49.596;11.070;2022-07-10T11:45:43;21.90;45.60
15359;DHT22;7779;49.596;11.070;2022-07-10T11:48:17;21.90;45.60
15359;DHT22;7779;49.596;11.070;2022-07-10T11:50:44;22.00;45.10
15359;DHT22;7779;49.596;11.070;2022-07-10T11:53:10;22.00;45.50
15359;DHT22;7779;49.596;11.070;2022-07-10T11:55:37;22.10;44.80
15359;DHT22;7779;49.596;11.070;2022-07-10T11:58:19;22.10;45.30
15359;DHT22;7779;49.596;11.070;2022-07-10T12:00:58;22.20;44.10
15359;DHT22;7779;49.596;11.070;2022-07-10T12:03:32;22.30;43.70
15359;DHT22;7779;49.596;11.070;2022-07-10T12:06:03;22.20;44.70
15359;DHT22;7779;49.596;11.070;2022-07-10T12:08:45;22.30;44.60
15359;DHT22;7779;49.596;11.070;2022-07-10T12:11:13;22.30;44.40
15359;DHT22;7779;49.596;11.070;2022-07-10T12:13:43;22.30;45.00
15359;DHT22;7779;49.596;11.070;2022-07-10T12:16:09;22.40;45.00
15359;DHT22;7779;49.596;11.070;2022-07-10T12:18:35;22.40;44.80
15359;DHT22;7779;49.596;11.070;2022-07-10T12:21:01;22.40;44.70
15359;DHT22;7779;49.596;11.070;2022-07-10T12:23:28;22.40;44.60
15359;DHT22;7779;49.596;11.070;2022-07-10T12:25:55;22.40;44.40
15359;DHT22;7779;49.596;11.070;2022-07-10T12:28:22;22.30;45.00
15359;DHT22;7779;49.596;11.070;2022-07-10T12:30:49;22.40;44.50
15359;DHT22;7779;49.596;11.070;2022-07-10T12:33:18;22.40;44.50
15359;DHT22;7779;49.596;11.070;2022-07-10T12:35:58;22.40;44.40
15359;DHT22;7779;49.596;11.070;2022-07-10T12:38:29;22.50;43.70
15359;DHT22;7779;49.596;11.070;2022-07-10T12:41:13;22.50;44.00
15359;DHT22;7779;49.596;11.070;2022-07-10T12:43:41;22.50;43.20
15359;DHT22;7779;49.596;11.070;2022-07-10T12:46:15;22.60;44.30
15359;DHT22;7779;49.596;11.070;2022-07-10T12:48:43;22.60;44.10
15359;DHT22;7779;49.596;11.070;2022-07-10T12:51:46;22.60;44.40
15359;DHT22;7779;49.596;11.070;2022-07-10T12:54:32;22.60;43.30
15359;DHT22;7779;49.596;11.070;2022-07-10T12:57:02;22.60;42.90
15359;DHT22;7779;49.596;11.070;2022-07-10T12:59:33;22.60;43.80
15359;DHT22;7779;49.596;11.070;2022-07-10T13:02:15;22.70;43.80
15359;DHT22;7779;49.596;11.070;2022-07-10T13:04:53;22.70;42.80
15359;DHT22;7779;49.596;11.070;2022-07-10T13:07:28;22.80;43.30
15359;DHT22;7779;49.596;11.070;2022-07-10T13:09:55;22.80;44.30
15359;DHT22;7779;49.596;11.070;2022-07-10T13:12:20;22.80;43.70
15359;DHT22;7779;49.596;11.070;2022-07-10T13:14:46;22.80;43.50
15359;DHT22;7779;49.596;11.070;2022-07-10T13:17:12;22.80;43.40
15359;DHT22;7779;49.596;11.070;2022-07-10T13:19:38;22.80;43.40
15359;DHT22;7779;49.596;11.070;2022-07-10T13:22:04;22.90;43.60
15359;DHT22;7779;49.596;11.070;2022-07-10T13:24:30;22.90;44.10
15359;DHT22;7779;49.596;11.070;2022-07-10T13:26:55;23.00;43.50
15359;DHT22;7779;49.596;11.070;2022-07-10T13:29:22;23.00;43.40
15359;DHT22;7779;49.596;11.070;2022-07-10T13:31:48;23.10;43.40
15359;DHT22;7779;49.596;11.070;2022-07-10T13:34:14;23.10;43.30
15359;DHT22;7779;49.596;11.070;2022-07-10T13:36:40;23.10;42.80
15359;DHT22;7779;49.596;11.070;2022-07-10T13:39:06;23.10;42.70
15359;DHT22;7779;49.596;11.070;2022-07-10T13:41:31;23.00;42.60
15359;DHT22;7779;49.596;11.070;2022-07-10T13:43:57;23.00;42.60
15359;DHT22;7779;49.596;11.070;2022-07-10T13:46:23;22.90;42.40
15359;DHT22;7779;49.596;11.070;2022-07-10T13:48:49;22.80;42.50
15359;DHT22;7779;49.596;11.070;2022-07-10T13:51:14;22.80;42.60
15359;DHT22;7779;49.596;11.070;2022-07-10T13:53:40;22.80;42.80
15359;DHT22;7779;49.596;11.070;2022-07-10T13:56:07;22.80;43.50
15359;DHT22;7779;49.596;11.070;2022-07-10T13:58:34;22.70;42.90
15359;DHT22;7779;49.596;11.070;2022-07-10T14:01:02;22.70;43.10
15359;DHT22;7779;49.596;11.070;2022-07-10T14:03:30;22.80;43.20
15359;DHT22;7779;49.596;11.070;2022-07-10T14:05:57;22.80;43.20
15359;DHT22;7779;49.596;11.070;2022-07-10T14:08:23;22.80;43.10
15359;DHT22;7779;49.596;11.070;2022-07-10T14:10:49;22.90;43.60
15359;DHT22;7779;49.596;11.070;2022-07-10T14:13:15;22.90;42.90
15359;DHT22;7779;49.596;11.070;2022-07-10T14:15:41;22.90;42.80
15359;DHT22;7779;49.596;11.070;2022-07-10T14:18:10;23.00;42.90
15359;DHT22;7779;49.596;11.070;2022-07-10T14:20:37;23.00;42.90
15359;DHT22;7779;49.596;11.070;2022-07-10T14:23:21;23.00;42.70
15359;DHT22;7779;49.596;11.070;2022-07-10T14:25:47;23.00;42.10
15359;DHT22;7779;49.596;11.070;2022-07-10T14:28:14;23.00;42.60
15359;DHT22;7779;49.596;11.070;2022-07-10T14:30:43;23.00;42.60
15359;DHT22;7779;49.596;11.070;2022-07-10T14:33:09;22.90;42.30
15359;DHT22;7779;49.596;11.070;2022-07-10T14:35:35;22.90;42.40
15359;DHT22;7779;49.596;11.070;2022-07-10T14:38:00;22.90;42.50
15359;DHT22;7779;49.596;11.070;2022-07-10T14:40:26;22.90;42.40
15359;DHT22;7779;49.596;11.070;2022-07-10T14:42:52;22.80;42.30
15359;DHT22;7779;49.596;11.070;2022-07-10T14:45:22;22.80;42.30
15359;DHT22;7779;49.596;11.070;2022-07-10T14:47:49;22.80;42.40
15359;DHT22;7779;49.596;11.070;2022-07-10T14:50:16;22.70;42.30
15359;DHT22;7779;49.596;11.070;2022-07-10T14:52:43;22.70;42.40
15359;DHT22;7779;49.596;11.070;2022-07-10T14:55:09;22.70;42.40
15359;DHT22;7779;49.596;11.070;2022-07-10T14:57:35;22.70;42.60
15359;DHT22;7779;49.596;11.070;2022-07-10T15:00:01;22.70;42.70
15359;DHT22;7779;49.596;11.070;2022-07-10T15:02:27;22.70;42.80
15359;DHT22;7779;49.596;11.070;2022-07-10T15:04:53;22.80;42.90
15359;DHT22;7779;49.596;11.070;2022-07-10T15:07:19;22.80;42.80
15359;DHT22;7779;49.596;11.070;2022-07-10T15:09:45;22.80;42.80
15359;DHT22;7779;49.596;11.070;2022-07-10T15:12:10;22.80;42.70
15359;DHT22;7779;49.596;11.070;2022-07-10T15:14:36;22.80;42.70
15359;DHT22;7779;49.596;11.070;2022-07-10T15:17:03;22.90;42.60
15359;DHT22;7779;49.596;11.070;2022-07-10T15:19:29;22.90;42.50
15359;DHT22;7779;49.596;11.070;2022-07-10T15:21:54;22.90;42.50
15359;DHT22;7779;49.596;11.070;2022-07-10T15:24:21;22.90;42.30
15359;DHT22;7779;49.596;11.070;2022-07-10T15:26:47;22.90;42.20
15359;DHT22;7779;49.596;11.070;2022-07-10T15:29:14;22.90;42.00
15359;DHT22;7779;49.596;11.070;2022-07-10T15:31:40;22.90;42.10
15359;DHT22;7779;49.596;11.070;2022-07-10T15:34:08;22.40;41.70
15359;DHT22;7779;49.596;11.070;2022-07-10T15:36:35;22.90;41.50
15359;DHT22;7779;49.596;11.070;2022-07-10T15:39:01;23.00;42.30
15359;DHT22;7779;49.596;11.070;2022-07-10T15:41:27;23.00;42.10
15359;DHT22;7779;49.596;11.070;2022-07-10T15:43:53;23.00;42.00
15359;DHT22;7779;49.596;11.070;2022-07-10T15:46:19;23.00;41.90
15359;DHT22;7779;49.596;11.070;2022-07-10T15:48:44;23.10;41.70
15359;DHT22;7779;49.596;11.070;2022-07-10T15:51:10;23.00;41.40
15359;DHT22;7779;49.596;11.070;2022-07-10T15:53:36;23.00;41.10
15359;DHT22;7779;49.596;11.070;2022-07-10T15:56:03;22.90;41.00
15359;DHT22;7779;49.596;11.070;2022-07-10T15:58:29;22.80;41.10
15359;DHT22;7779;49.596;11.070;2022-07-10T16:00:55;22.80;41.10
15359;DHT22;7779;49.596;11.070;2022-07-10T16:03:21;22.70;41.70
15359;DHT22;7779;49.596;11.070;2022-07-10T16:05:47;22.70;41.20
15359;DHT22;7779;49.596;11.070;2022-07-10T16:08:12;22.60;41.20
15359;DHT22;7779;49.596;11.070;2022-07-10T16:10:39;22.50;41.10